sensor_id;sensor_type;location;lat;lon;timestamp;P1;durP1;ratioP1;P2;durP2;ratioP2
2175;SDS011;1094;49.902;10.876;2022-07-19T00:01:25;4.83;;;3.17;;
2175;SDS011;1094;49.902;10.876;2022-07-19T00:03:51;6.63;;;3.40;;
2175;SDS011;1094;49.902;10.876;2022-07-19T00:06:17;5.40;;;3.93;;
2175;SDS011;1094;49.902;10.876;2022-07-19T00:08:43;3.83;;;3.27;;
2175;SDS011;1094;49.902;10.876;2022-07-19T00:11:09;3.60;;;3.30;;
2175;SDS011;1094;49.902;10.876;2022-07-19T00:13:34;5.53;;;3.30;;
2175;SDS011;1094;49.902;10.876;2022-07-19T00:16:00;5.93;;;3.33;;
2175;SDS011;1094;49.902;10.876;2022-07-19T00:18:26;5.37;;;3.70;;
2175;SDS011;1094;49.902;10.876;2022-07-19T00:20:52;7.93;;;3.73;;
2175;SDS011;1094;49.902;10.876;2022-07-19T00:23:18;6.37;;;3.53;;
2175;SDS011;1094;49.902;10.876;2022-07-19T00:25:44;5.70;;;3.50;;
2175;SDS011;1094;49.902;10.876;2022-07-19T00:28:10;8.23;;;3.40;;
2175;SDS011;1094;49.902;10.876;2022-07-19T00:30:36;7.63;;;3.67;;
2175;SDS011;1094;49.902;10.876;2022-07-19T00:33:02;5.60;;;3.30;;
2175;SDS011;1094;49.902;10.876;2022-07-19T00:35:33;6.07;;;3.50;;
2175;SDS011;1094;49.902;10.876;2022-07-19T00:38:03;3.80;;;3.30;;
2175;SDS011;1094;49.902;10.876;2022-07-19T00:40:29;23.87;;;4.33;;
2175;SDS011;1094;49.902;10.876;2022-07-19T00:42:55;7.67;;;3.27;;
2175;SDS011;1094;49.902;10.876;2022-07-19T00:45:21;4.43;;;3.33;;
2175;SDS011;1094;49.902;10.876;2022-07-19T00:47:47;6.23;;;3.63;;
2175;SDS011;1094;49.902;10.876;2022-07-19T00:50:13;7.87;;;3.80;;
2175;SDS011;1094;49.902;10.876;2022-07-19T00:52:39;4.57;;;3.37;;
2175;SDS011;1094;49.902;10.876;2022-07-19T00:55:09;4.70;;;3.50;;
2175;SDS011;1094;49.902;10.876;2022-07-19T00:57:36;6.10;;;3.37;;
2175;SDS011;1094;49.902;10.876;2022-07-19T01:00:06;4.53;;;3.53;;
2175;SDS011;1094;49.902;10.876;2022-07-19T01:02:32;5.03;;;3.77;;
2175;SDS011;1094;49.902;10.876;2022-07-19T01:04:58;5.00;;;4.00;;
2175;SDS011;1094;49.902;10.876;2022-07-19T01:07:25;7.00;;;4.20;;
2175;SDS011;1094;49.902;10.876;2022-07-19T01:09:51;6.20;;;4.30;;
2175;SDS011;1094;49.902;10.876;2022-07-19T01:12:18;7.70;;;3.93;;
2175;SDS011;1094;49.902;10.876;2022-07-19T01:14:44;5.00;;;3.67;;
2175;SDS011;1094;49.902;10.876;2022-07-19T01:17:10;7.90;;;3.73;;
2175;SDS011;1094;49.902;10.876;2022-07-19T01:19:36;5.80;;;3.70;;
2175;SDS011;1094;49.902;10.876;2022-07-19T01:22:02;5.73;;;4.03;;
2175;SDS011;1094;49.902;10.876;2022-07-19T01:24:28;5.03;;;3.63;;
2175;SDS011;1094;49.902;10.876;2022-07-19T01:26:54;6.40;;;4.07;;
2175;SDS011;1094;49.902;10.876;2022-07-19T01:29:20;12.83;;;4.50;;
2175;SDS011;1094;49.902;10.876;2022-07-19T01:31:46;6.27;;;4.07;;
2175;SDS011;1094;49.902;10.876;2022-07-19T01:34:12;7.90;;;4.07;;
2175;SDS011;1094;49.902;10.876;2022-07-19T01:36:38;5.33;;;4.30;;
2175;SDS011;1094;49.902;10.876;2022-07-19T01:39:04;7.87;;;3.90;;
2175;SDS011;1094;49.902;10.876;2022-07-19T01:41:30;9.40;;;4.43;;
2175;SDS011;1094;49.902;10.876;2022-07-19T01:43:56;5.80;;;4.20;;
2175;SDS011;1094;49.902;10.876;2022-07-19T01:46:22;7.80;;;3.60;;
2175;SDS011;1094;49.902;10.876;2022-07-19T01:48:48;7.73;;;4.00;;
2175;SDS011;1094;49.902;10.876;2022-07-19T01:51:14;6.27;;;4.10;;
2175;SDS011;1094;49.902;10.876;2022-07-19T01:53:40;5.30;;;4.00;;
2175;SDS011;1094;49.902;10.876;2022-07-19T01:56:06;5.53;;;3.73;;
2175;SDS011;1094;49.902;10.876;2022-07-19T01:58:32;7.43;;;4.00;;
2175;SDS011;1094;49.902;10.876;2022-07-19T02:00:58;5.60;;;4.07;;
2175;SDS011;1094;49.902;10.876;2022-07-19T02:03:24;7.07;;;3.70;;
2175;SDS011;1094;49.902;10.876;2022-07-19T02:05:50;5.93;;;3.73;;
2175;SDS011;1094;49.902;10.876;2022-07-19T02:08:16;4.83;;;4.17;;
2175;SDS011;1094;49.902;10.876;2022-07-19T02:10:42;8.77;;;4.20;;
2175;SDS011;1094;49.902;10.876;2022-07-19T02:13:08;6.03;;;3.90;;
2175;SDS011;1094;49.902;10.876;2022-07-19T02:15:34;5.47;;;3.87;;
2175;SDS011;1094;49.902;10.876;2022-07-19T02:18:00;5.90;;;4.40;;
2175;SDS011;1094;49.902;10.876;2022-07-19T02:20:26;4.40;;;4.00;;
2175;SDS011;1094;49.902;10.876;2022-07-19T02:22:52;7.23;;;3.83;;
2175;SDS011;1094;49.902;10.876;2022-07-19T02:25:18;5.10;;;4.33;;
2175;SDS011;1094;49.902;10.876;2022-07-19T02:27:44;6.77;;;5.03;;
2175;SDS011;1094;49.902;10.876;2022-07-19T02:30:12;6.03;;;4.50;;
2175;SDS011;1094;49.902;10.876;2022-07-19T02:32:38;7.23;;;4.13;;
2175;SDS011;1094;49.902;10.876;2022-07-19T02:35:05;9.73;;;4.33;;
2175;SDS011;1094;49.902;10.876;2022-07-19T02:37:32;4.97;;;4.10;;
2175;SDS011;1094;49.902;10.876;2022-07-19T02:39:58;5.27;;;4.30;;
2175;SDS011;1094;49.902;10.876;2022-07-19T02:42:23;4.43;;;4.03;;
2175;SDS011;1094;49.902;10.876;2022-07-19T02:44:49;6.63;;;4.30;;
2175;SDS011;1094;49.902;10.876;2022-07-19T02:47:15;8.60;;;4.17;;
2175;SDS011;1094;49.902;10.876;2022-07-19T02:49:41;7.27;;;4.63;;
2175;SDS011;1094;49.902;10.876;2022-07-19T02:52:07;7.10;;;4.37;;
2175;SDS011;1094;49.902;10.876;2022-07-19T02:54:33;5.93;;;4.50;;
2175;SDS011;1094;49.902;10.876;2022-07-19T02:56:59;5.30;;;4.20;;
2175;SDS011;1094;49.902;10.876;2022-07-19T02:59:25;6.77;;;4.57;;
2175;SDS011;1094;49.902;10.876;2022-07-19T03:01:51;6.03;;;3.70;;
2175;SDS011;1094;49.902;10.876;2022-07-19T03:04:17;4.47;;;3.90;;
2175;SDS011;1094;49.902;10.876;2022-07-19T03:06:43;6.00;;;4.37;;
2175;SDS011;1094;49.902;10.876;2022-07-19T03:09:09;13.27;;;5.60;;
2175;SDS011;1094;49.902;10.876;2022-07-19T03:11:36;4.67;;;4.17;;
2175;SDS011;1094;49.902;10.876;2022-07-19T03:14:02;5.30;;;4.03;;
2175;SDS011;1094;49.902;10.876;2022-07-19T03:16:28;8.33;;;5.00;;
2175;SDS011;1094;49.902;10.876;2022-07-19T03:18:54;5.23;;;4.40;;
2175;SDS011;1094;49.902;10.876;2022-07-19T03:21:20;5.17;;;3.97;;
2175;SDS011;1094;49.902;10.876;2022-07-19T03:23:46;7.70;;;4.80;;
2175;SDS011;1094;49.902;10.876;2022-07-19T03:26:12;5.53;;;4.30;;
2175;SDS011;1094;49.902;10.876;2022-07-19T03:28:38;4.07;;;3.70;;
2175;SDS011;1094;49.902;10.876;2022-07-19T03:31:04;5.27;;;4.00;;
2175;SDS011;1094;49.902;10.876;2022-07-19T03:33:30;7.20;;;4.37;;
2175;SDS011;1094;49.902;10.876;2022-07-19T03:35:56;5.70;;;3.93;;
2175;SDS011;1094;49.902;10.876;2022-07-19T03:38:22;8.40;;;4.60;;
2175;SDS011;1094;49.902;10.876;2022-07-19T03:40:48;10.13;;;4.40;;
2175;SDS011;1094;49.902;10.876;2022-07-19T03:43:14;5.30;;;4.07;;
2175;SDS011;1094;49.902;10.876;2022-07-19T03:45:41;9.30;;;5.37;;
2175;SDS011;1094;49.902;10.876;2022-07-19T03:48:07;7.47;;;4.50;;
2175;SDS011;1094;49.902;10.876;2022-07-19T03:50:33;7.20;;;4.37;;
2175;SDS011;1094;49.902;10.876;2022-07-19T03:52:59;7.77;;;4.30;;
2175;SDS011;1094;49.902;10.876;2022-07-19T03:55:25;7.10;;;4.57;;
2175;SDS011;1094;49.902;10.876;2022-07-19T03:57:51;9.57;;;3.60;;
2175;SDS011;1094;49.902;10.876;2022-07-19T04:00:17;5.70;;;3.90;;
2175;SDS011;1094;49.902;10.876;2022-07-19T04:02:42;6.47;;;4.30;;
2175;SDS011;1094;49.902;10.876;2022-07-19T04:05:08;6.80;;;4.27;;
2175;SDS011;1094;49.902;10.876;2022-07-19T04:07:35;9.57;;;4.70;;
2175;SDS011;1094;49.902;10.876;2022-07-19T04:10:01;5.50;;;4.57;;
2175;SDS011;1094;49.902;10.876;2022-07-19T04:12:27;10.67;;;5.70;;
2175;SDS011;1094;49.902;10.876;2022-07-19T04:14:53;6.73;;;4.70;;
2175;SDS011;1094;49.902;10.876;2022-07-19T04:17:19;7.90;;;4.40;;
2175;SDS011;1094;49.902;10.876;2022-07-19T04:19:46;8.53;;;3.77;;
2175;SDS011;1094;49.902;10.876;2022-07-19T04:22:12;7.60;;;4.60;;
2175;SDS011;1094;49.902;10.876;2022-07-19T04:24:38;8.40;;;4.53;;
2175;SDS011;1094;49.902;10.876;2022-07-19T04:27:03;4.20;;;3.30;;
2175;SDS011;1094;49.902;10.876;2022-07-19T04:29:29;11.77;;;3.40;;
2175;SDS011;1094;49.902;10.876;2022-07-19T04:31:55;7.43;;;4.30;;
2175;SDS011;1094;49.902;10.876;2022-07-19T04:34:21;7.50;;;4.13;;
2175;SDS011;1094;49.902;10.876;2022-07-19T04:36:47;3.80;;;3.20;;
2175;SDS011;1094;49.902;10.876;2022-07-19T04:39:13;5.50;;;3.60;;
2175;SDS011;1094;49.902;10.876;2022-07-19T04:41:39;4.60;;;3.37;;
2175;SDS011;1094;49.902;10.876;2022-07-19T04:44:05;6.10;;;3.90;;
2175;SDS011;1094;49.902;10.876;2022-07-19T04:46:31;5.70;;;3.33;;
2175;SDS011;1094;49.902;10.876;2022-07-19T04:48:57;4.33;;;3.60;;
2175;SDS011;1094;49.902;10.876;2022-07-19T04:51:23;5.30;;;3.57;;
2175;SDS011;1094;49.902;10.876;2022-07-19T04:53:49;10.13;;;3.93;;
2175;SDS011;1094;49.902;10.876;2022-07-19T04:56:15;4.17;;;3.77;;
2175;SDS011;1094;49.902;10.876;2022-07-19T04:58:41;6.77;;;3.53;;
2175;SDS011;1094;49.902;10.876;2022-07-19T05:01:07;5.10;;;3.50;;
2175;SDS011;1094;49.902;10.876;2022-07-19T05:03:33;6.73;;;4.03;;
2175;SDS011;1094;49.902;10.876;2022-07-19T05:05:59;7.57;;;4.63;;
2175;SDS011;1094;49.902;10.876;2022-07-19T05:08:25;8.10;;;3.70;;
2175;SDS011;1094;49.902;10.876;2022-07-19T05:10:51;5.83;;;3.90;;
2175;SDS011;1094;49.902;10.876;2022-07-19T05:13:17;5.73;;;3.43;;
2175;SDS011;1094;49.902;10.876;2022-07-19T05:15:43;5.87;;;3.63;;
2175;SDS011;1094;49.902;10.876;2022-07-19T05:18:09;10.17;;;3.63;;
2175;SDS011;1094;49.902;10.876;2022-07-19T05:20:35;6.43;;;3.23;;
2175;SDS011;1094;49.902;10.876;2022-07-19T05:23:01;11.73;;;3.80;;
2175;SDS011;1094;49.902;10.876;2022-07-19T05:25:27;3.37;;;2.70;;
2175;SDS011;1094;49.902;10.876;2022-07-19T05:27:53;4.37;;;2.93;;
2175;SDS011;1094;49.902;10.876;2022-07-19T05:30:21;6.30;;;3.43;;
2175;SDS011;1094;49.902;10.876;2022-07-19T05:32:47;8.07;;;4.30;;
2175;SDS011;1094;49.902;10.876;2022-07-19T05:35:13;9.93;;;5.63;;
2175;SDS011;1094;49.902;10.876;2022-07-19T05:37:40;12.03;;;4.67;;
2175;SDS011;1094;49.902;10.876;2022-07-19T05:40:06;18.13;;;5.03;;
2175;SDS011;1094;49.902;10.876;2022-07-19T05:42:32;7.90;;;4.17;;
2175;SDS011;1094;49.902;10.876;2022-07-19T05:44:58;6.87;;;3.33;;
2175;SDS011;1094;49.902;10.876;2022-07-19T05:47:23;11.93;;;3.30;;
2175;SDS011;1094;49.902;10.876;2022-07-19T05:49:49;5.33;;;3.53;;
2175;SDS011;1094;49.902;10.876;2022-07-19T05:52:15;8.47;;;3.50;;
2175;SDS011;1094;49.902;10.876;2022-07-19T05:54:42;15.23;;;5.40;;
2175;SDS011;1094;49.902;10.876;2022-07-19T05:57:07;9.07;;;4.50;;
2175;SDS011;1094;49.902;10.876;2022-07-19T05:59:33;10.40;;;4.87;;
2175;SDS011;1094;49.902;10.876;2022-07-19T06:02:00;7.10;;;4.37;;
2175;SDS011;1094;49.902;10.876;2022-07-19T06:04:26;15.93;;;4.40;;
2175;SDS011;1094;49.902;10.876;2022-07-19T06:06:52;16.63;;;4.83;;
2175;SDS011;1094;49.902;10.876;2022-07-19T06:09:18;10.33;;;3.67;;
2175;SDS011;1094;49.902;10.876;2022-07-19T06:11:44;17.30;;;4.00;;
2175;SDS011;1094;49.902;10.876;2022-07-19T06:14:10;6.30;;;3.70;;
2175;SDS011;1094;49.902;10.876;2022-07-19T06:16:37;11.60;;;4.00;;
2175;SDS011;1094;49.902;10.876;2022-07-19T06:19:05;8.60;;;4.23;;
2175;SDS011;1094;49.902;10.876;2022-07-19T06:21:31;6.60;;;3.10;;
2175;SDS011;1094;49.902;10.876;2022-07-19T06:23:58;7.75;;;3.70;;
2175;SDS011;1094;49.902;10.876;2022-07-19T06:26:24;12.75;;;3.60;;
2175;SDS011;1094;49.902;10.876;2022-07-19T06:28:51;12.70;;;3.28;;
2175;SDS011;1094;49.902;10.876;2022-07-19T06:31:17;6.22;;;3.70;;
2175;SDS011;1094;49.902;10.876;2022-07-19T06:33:43;9.88;;;3.22;;
2175;SDS011;1094;49.902;10.876;2022-07-19T06:36:10;8.18;;;3.20;;
2175;SDS011;1094;49.902;10.876;2022-07-19T06:38:36;10.50;;;3.22;;
2175;SDS011;1094;49.902;10.876;2022-07-19T06:41:02;16.95;;;3.63;;
2175;SDS011;1094;49.902;10.876;2022-07-19T06:43:28;14.88;;;3.40;;
2175;SDS011;1094;49.902;10.876;2022-07-19T06:45:54;9.35;;;3.30;;
2175;SDS011;1094;49.902;10.876;2022-07-19T06:48:20;9.10;;;2.95;;
2175;SDS011;1094;49.902;10.876;2022-07-19T06:50:46;9.30;;;3.22;;
2175;SDS011;1094;49.902;10.876;2022-07-19T06:53:12;12.80;;;2.75;;
2175;SDS011;1094;49.902;10.876;2022-07-19T06:55:38;8.30;;;3.15;;
2175;SDS011;1094;49.902;10.876;2022-07-19T06:58:04;7.07;;;3.53;;
2175;SDS011;1094;49.902;10.876;2022-07-19T07:00:30;7.55;;;2.95;;
2175;SDS011;1094;49.902;10.876;2022-07-19T07:02:56;10.75;;;3.00;;
2175;SDS011;1094;49.902;10.876;2022-07-19T07:05:22;6.15;;;2.55;;
2175;SDS011;1094;49.902;10.876;2022-07-19T07:07:48;8.07;;;3.03;;
2175;SDS011;1094;49.902;10.876;2022-07-19T07:10:16;11.77;;;3.38;;
2175;SDS011;1094;49.902;10.876;2022-07-19T07:12:42;6.25;;;2.78;;
2175;SDS011;1094;49.902;10.876;2022-07-19T07:15:08;6.55;;;3.28;;
2175;SDS011;1094;49.902;10.876;2022-07-19T07:17:35;4.75;;;3.15;;
2175;SDS011;1094;49.902;10.876;2022-07-19T07:20:02;11.02;;;4.43;;
2175;SDS011;1094;49.902;10.876;2022-07-19T07:22:28;10.02;;;3.22;;
2175;SDS011;1094;49.902;10.876;2022-07-19T07:24:54;8.70;;;4.20;;
2175;SDS011;1094;49.902;10.876;2022-07-19T07:27:20;10.40;;;4.93;;
2175;SDS011;1094;49.902;10.876;2022-07-19T07:29:46;9.93;;;4.20;;
2175;SDS011;1094;49.902;10.876;2022-07-19T07:32:12;6.50;;;3.30;;
2175;SDS011;1094;49.902;10.876;2022-07-19T07:34:38;6.88;;;2.78;;
2175;SDS011;1094;49.902;10.876;2022-07-19T07:37:04;10.20;;;3.30;;
2175;SDS011;1094;49.902;10.876;2022-07-19T07:39:30;5.03;;;2.78;;
2175;SDS011;1094;49.902;10.876;2022-07-19T07:41:56;2.85;;;2.20;;
2175;SDS011;1094;49.902;10.876;2022-07-19T07:44:22;3.58;;;1.85;;
2175;SDS011;1094;49.902;10.876;2022-07-19T07:46:48;8.02;;;2.17;;
2175;SDS011;1094;49.902;10.876;2022-07-19T07:49:14;3.75;;;2.30;;
2175;SDS011;1094;49.902;10.876;2022-07-19T07:51:40;5.30;;;2.10;;
2175;SDS011;1094;49.902;10.876;2022-07-19T07:54:06;2.63;;;1.80;;
2175;SDS011;1094;49.902;10.876;2022-07-19T07:56:31;11.50;;;2.67;;
2175;SDS011;1094;49.902;10.876;2022-07-19T07:58:57;4.25;;;2.15;;
2175;SDS011;1094;49.902;10.876;2022-07-19T08:01:23;3.55;;;2.25;;
2175;SDS011;1094;49.902;10.876;2022-07-19T08:03:49;2.60;;;2.13;;
2175;SDS011;1094;49.902;10.876;2022-07-19T08:06:15;3.78;;;1.77;;
2175;SDS011;1094;49.902;10.876;2022-07-19T08:08:42;3.50;;;2.08;;
2175;SDS011;1094;49.902;10.876;2022-07-19T08:11:08;14.00;;;1.80;;
2175;SDS011;1094;49.902;10.876;2022-07-19T08:13:35;2.45;;;2.15;;
2175;SDS011;1094;49.902;10.876;2022-07-19T08:16:01;4.32;;;1.92;;
2175;SDS011;1094;49.902;10.876;2022-07-19T08:18:27;7.90;;;2.10;;
2175;SDS011;1094;49.902;10.876;2022-07-19T08:20:53;2.70;;;1.95;;
2175;SDS011;1094;49.902;10.876;2022-07-19T08:23:19;2.47;;;2.05;;
2175;SDS011;1094;49.902;10.876;2022-07-19T08:25:45;3.30;;;2.03;;
2175;SDS011;1094;49.902;10.876;2022-07-19T08:28:11;4.03;;;2.10;;
2175;SDS011;1094;49.902;10.876;2022-07-19T08:30:37;5.22;;;2.00;;
2175;SDS011;1094;49.902;10.876;2022-07-19T08:33:03;4.20;;;2.05;;
2175;SDS011;1094;49.902;10.876;2022-07-19T08:35:33;2.42;;;2.00;;
2175;SDS011;1094;49.902;10.876;2022-07-19T08:37:59;3.92;;;1.67;;
2175;SDS011;1094;49.902;10.876;2022-07-19T08:40:25;2.70;;;1.70;;
2175;SDS011;1094;49.902;10.876;2022-07-19T08:42:51;6.63;;;1.40;;
2175;SDS011;1094;49.902;10.876;2022-07-19T08:45:17;2.17;;;1.25;;
2175;SDS011;1094;49.902;10.876;2022-07-19T08:47:43;2.65;;;2.00;;
2175;SDS011;1094;49.902;10.876;2022-07-19T08:50:10;1.88;;;1.63;;
2175;SDS011;1094;49.902;10.876;2022-07-19T08:52:36;5.13;;;1.77;;
2175;SDS011;1094;49.902;10.876;2022-07-19T08:55:03;3.33;;;1.70;;
2175;SDS011;1094;49.902;10.876;2022-07-19T08:57:29;4.97;;;1.75;;
2175;SDS011;1094;49.902;10.876;2022-07-19T09:00:14;3.47;;;1.73;;
2175;SDS011;1094;49.902;10.876;2022-07-19T09:02:50;2.63;;;1.65;;
2175;SDS011;1094;49.902;10.876;2022-07-19T09:05:16;3.47;;;1.70;;
2175;SDS011;1094;49.902;10.876;2022-07-19T09:07:42;2.83;;;1.67;;
2175;SDS011;1094;49.902;10.876;2022-07-19T09:10:24;2.60;;;1.60;;
2175;SDS011;1094;49.902;10.876;2022-07-19T09:15:45;3.58;;;2.15;;
2175;SDS011;1094;49.902;10.876;2022-07-19T09:18:16;3.25;;;1.80;;
2175;SDS011;1094;49.902;10.876;2022-07-19T09:20:42;2.38;;;1.55;;
2175;SDS011;1094;49.902;10.876;2022-07-19T09:23:08;3.70;;;1.63;;
2175;SDS011;1094;49.902;10.876;2022-07-19T09:28:03;3.30;;;1.77;;
2175;SDS011;1094;49.902;10.876;2022-07-19T09:30:42;1.80;;;1.42;;
2175;SDS011;1094;49.902;10.876;2022-07-19T09:33:10;2.92;;;1.80;;
2175;SDS011;1094;49.902;10.876;2022-07-19T09:35:40;3.00;;;1.67;;
2175;SDS011;1094;49.902;10.876;2022-07-19T09:40:44;2.55;;;1.38;;
2175;SDS011;1094;49.902;10.876;2022-07-19T09:43:10;4.03;;;1.42;;
2175;SDS011;1094;49.902;10.876;2022-07-19T09:45:36;1.67;;;1.50;;
2175;SDS011;1094;49.902;10.876;2022-07-19T09:48:02;3.72;;;1.73;;
2175;SDS011;1094;49.902;10.876;2022-07-19T09:50:29;2.00;;;1.40;;
2175;SDS011;1094;49.902;10.876;2022-07-19T09:52:56;2.22;;;1.52;;
2175;SDS011;1094;49.902;10.876;2022-07-19T09:55:23;3.97;;;1.50;;
2175;SDS011;1094;49.902;10.876;2022-07-19T09:57:50;6.70;;;1.77;;
2175;SDS011;1094;49.902;10.876;2022-07-19T10:00:17;2.38;;;1.50;;
2175;SDS011;1094;49.902;10.876;2022-07-19T10:02:44;4.38;;;1.55;;
2175;SDS011;1094;49.902;10.876;2022-07-19T10:05:11;4.50;;;1.77;;
2175;SDS011;1094;49.902;10.876;2022-07-19T10:07:38;1.90;;;1.48;;
2175;SDS011;1094;49.902;10.876;2022-07-19T10:10:06;2.20;;;1.45;;
2175;SDS011;1094;49.902;10.876;2022-07-19T10:12:33;3.20;;;1.98;;
2175;SDS011;1094;49.902;10.876;2022-07-19T10:14:59;2.50;;;1.60;;
2175;SDS011;1094;49.902;10.876;2022-07-19T10:19:51;3.45;;;2.00;;
2175;SDS011;1094;49.902;10.876;2022-07-19T10:22:18;4.80;;;2.00;;
2175;SDS011;1094;49.902;10.876;2022-07-19T10:27:44;3.28;;;1.65;;
2175;SDS011;1094;49.902;10.876;2022-07-19T10:32:37;2.20;;;1.48;;
2175;SDS011;1094;49.902;10.876;2022-07-19T10:35:17;3.80;;;1.80;;
2175;SDS011;1094;49.902;10.876;2022-07-19T10:37:44;7.60;;;2.03;;
2175;SDS011;1094;49.902;10.876;2022-07-19T10:40:10;1.90;;;1.80;;
2175;SDS011;1094;49.902;10.876;2022-07-19T10:42:36;3.15;;;1.90;;
2175;SDS011;1094;49.902;10.876;2022-07-19T10:50:00;3.92;;;1.52;;
2175;SDS011;1094;49.902;10.876;2022-07-19T10:57:37;3.55;;;2.00;;
2175;SDS011;1094;49.902;10.876;2022-07-19T11:00:46;2.97;;;1.98;;
2175;SDS011;1094;49.902;10.876;2022-07-19T11:03:25;1.80;;;1.50;;
2175;SDS011;1094;49.902;10.876;2022-07-19T11:05:45;1.92;;;1.48;;
2175;SDS011;1094;49.902;10.876;2022-07-19T11:08:12;3.25;;;1.90;;
2175;SDS011;1094;49.902;10.876;2022-07-19T11:10:38;1.70;;;1.60;;
2175;SDS011;1094;49.902;10.876;2022-07-19T11:13:04;1.80;;;1.50;;
2175;SDS011;1094;49.902;10.876;2022-07-19T11:15:31;2.33;;;1.50;;
2175;SDS011;1094;49.902;10.876;2022-07-19T11:18:01;3.40;;;1.77;;
2175;SDS011;1094;49.902;10.876;2022-07-19T11:20:29;4.65;;;1.70;;
2175;SDS011;1094;49.902;10.876;2022-07-19T11:22:56;1.92;;;1.70;;
2175;SDS011;1094;49.902;10.876;2022-07-19T11:25:24;2.72;;;1.42;;
2175;SDS011;1094;49.902;10.876;2022-07-19T11:27:50;1.98;;;1.77;;
2175;SDS011;1094;49.902;10.876;2022-07-19T11:30:16;2.95;;;1.85;;
2175;SDS011;1094;49.902;10.876;2022-07-19T11:32:42;2.42;;;1.90;;
2175;SDS011;1094;49.902;10.876;2022-07-19T11:35:10;3.50;;;2.10;;
2175;SDS011;1094;49.902;10.876;2022-07-19T11:37:37;3.15;;;2.30;;
2175;SDS011;1094;49.902;10.876;2022-07-19T11:40:04;2.40;;;1.92;;
2175;SDS011;1094;49.902;10.876;2022-07-19T11:42:34;4.75;;;2.25;;
2175;SDS011;1094;49.902;10.876;2022-07-19T11:47:49;2.90;;;2.28;;
2175;SDS011;1094;49.902;10.876;2022-07-19T11:50:16;3.65;;;1.73;;
2175;SDS011;1094;49.902;10.876;2022-07-19T11:55:09;1.60;;;1.50;;
2175;SDS011;1094;49.902;10.876;2022-07-19T11:57:35;4.80;;;1.92;;
2175;SDS011;1094;49.902;10.876;2022-07-19T12:00:01;2.05;;;1.65;;
2175;SDS011;1094;49.902;10.876;2022-07-19T12:02:28;3.53;;;1.80;;
2175;SDS011;1094;49.902;10.876;2022-07-19T12:04:54;2.28;;;1.73;;
2175;SDS011;1094;49.902;10.876;2022-07-19T12:07:20;1.77;;;1.67;;
2175;SDS011;1094;49.902;10.876;2022-07-19T12:09:46;2.25;;;1.70;;
2175;SDS011;1094;49.902;10.876;2022-07-19T12:12:12;4.60;;;2.05;;
2175;SDS011;1094;49.902;10.876;2022-07-19T12:14:38;2.85;;;2.00;;
2175;SDS011;1094;49.902;10.876;2022-07-19T12:17:18;3.70;;;1.77;;
2175;SDS011;1094;49.902;10.876;2022-07-19T12:19:51;4.60;;;2.17;;
2175;SDS011;1094;49.902;10.876;2022-07-19T12:22:34;2.83;;;1.73;;
2175;SDS011;1094;49.902;10.876;2022-07-19T12:25:00;1.90;;;1.80;;
2175;SDS011;1094;49.902;10.876;2022-07-19T12:27:26;3.40;;;1.88;;
2175;SDS011;1094;49.902;10.876;2022-07-19T12:29:53;3.35;;;2.10;;
2175;SDS011;1094;49.902;10.876;2022-07-19T12:32:26;2.85;;;2.08;;
2175;SDS011;1094;49.902;10.876;2022-07-19T12:34:57;7.72;;;3.10;;
2175;SDS011;1094;49.902;10.876;2022-07-19T12:40:07;4.47;;;2.38;;
2175;SDS011;1094;49.902;10.876;2022-07-19T12:45:05;4.03;;;2.10;;
2175;SDS011;1094;49.902;10.876;2022-07-19T12:47:31;2.73;;;2.53;;
2175;SDS011;1094;49.902;10.876;2022-07-19T12:49:58;3.23;;;2.37;;
2175;SDS011;1094;49.902;10.876;2022-07-19T12:52:23;4.30;;;2.20;;
2175;SDS011;1094;49.902;10.876;2022-07-19T12:54:49;4.87;;;2.43;;
2175;SDS011;1094;49.902;10.876;2022-07-19T12:57:15;7.40;;;2.97;;
2175;SDS011;1094;49.902;10.876;2022-07-19T12:59:41;3.30;;;2.30;;
2175;SDS011;1094;49.902;10.876;2022-07-19T13:02:09;6.73;;;3.10;;
2175;SDS011;1094;49.902;10.876;2022-07-19T13:04:35;4.20;;;2.83;;
2175;SDS011;1094;49.902;10.876;2022-07-19T13:07:01;5.83;;;2.77;;
2175;SDS011;1094;49.902;10.876;2022-07-19T13:09:27;4.70;;;2.97;;
2175;SDS011;1094;49.902;10.876;2022-07-19T13:11:53;5.07;;;2.90;;
2175;SDS011;1094;49.902;10.876;2022-07-19T13:14:19;5.53;;;2.87;;
2175;SDS011;1094;49.902;10.876;2022-07-19T13:16:45;4.13;;;3.00;;
2175;SDS011;1094;49.902;10.876;2022-07-19T13:19:11;3.70;;;2.83;;
2175;SDS011;1094;49.902;10.876;2022-07-19T13:21:37;5.80;;;2.87;;
2175;SDS011;1094;49.902;10.876;2022-07-19T13:24:03;3.30;;;3.00;;
2175;SDS011;1094;49.902;10.876;2022-07-19T13:26:29;3.50;;;2.97;;
2175;SDS011;1094;49.902;10.876;2022-07-19T13:28:55;3.27;;;2.80;;
2175;SDS011;1094;49.902;10.876;2022-07-19T13:31:21;3.47;;;2.77;;
2175;SDS011;1094;49.902;10.876;2022-07-19T13:33:47;4.43;;;2.90;;
2175;SDS011;1094;49.902;10.876;2022-07-19T13:36:14;3.43;;;3.03;;
2175;SDS011;1094;49.902;10.876;2022-07-19T13:38:40;6.50;;;3.47;;
2175;SDS011;1094;49.902;10.876;2022-07-19T13:41:07;5.27;;;3.00;;
2175;SDS011;1094;49.902;10.876;2022-07-19T13:43:33;4.37;;;2.70;;
2175;SDS011;1094;49.902;10.876;2022-07-19T13:45:59;3.80;;;2.67;;
2175;SDS011;1094;49.902;10.876;2022-07-19T13:48:25;4.97;;;3.03;;
2175;SDS011;1094;49.902;10.876;2022-07-19T13:50:51;5.13;;;3.07;;
2175;SDS011;1094;49.902;10.876;2022-07-19T13:53:17;8.43;;;3.00;;
2175;SDS011;1094;49.902;10.876;2022-07-19T13:55:43;5.53;;;3.80;;
2175;SDS011;1094;49.902;10.876;2022-07-19T13:58:09;5.03;;;3.07;;
2175;SDS011;1094;49.902;10.876;2022-07-19T14:00:35;4.67;;;2.70;;
2175;SDS011;1094;49.902;10.876;2022-07-19T14:03:01;6.70;;;3.03;;
2175;SDS011;1094;49.902;10.876;2022-07-19T14:05:27;3.47;;;3.17;;
2175;SDS011;1094;49.902;10.876;2022-07-19T14:07:54;4.17;;;3.17;;
2175;SDS011;1094;49.902;10.876;2022-07-19T14:10:20;5.80;;;3.17;;
2175;SDS011;1094;49.902;10.876;2022-07-19T14:12:45;5.10;;;3.17;;
2175;SDS011;1094;49.902;10.876;2022-07-19T14:15:11;5.40;;;3.23;;
2175;SDS011;1094;49.902;10.876;2022-07-19T14:17:37;6.23;;;2.70;;
2175;SDS011;1094;49.902;10.876;2022-07-19T14:20:03;7.70;;;3.33;;
2175;SDS011;1094;49.902;10.876;2022-07-19T14:22:30;4.40;;;2.77;;
2175;SDS011;1094;49.902;10.876;2022-07-19T14:24:56;5.00;;;2.73;;
2175;SDS011;1094;49.902;10.876;2022-07-19T14:27:24;5.03;;;2.80;;
2175;SDS011;1094;49.902;10.876;2022-07-19T14:29:50;6.33;;;3.40;;
2175;SDS011;1094;49.902;10.876;2022-07-19T14:32:17;4.40;;;3.50;;
2175;SDS011;1094;49.902;10.876;2022-07-19T14:34:44;3.53;;;2.40;;
2175;SDS011;1094;49.902;10.876;2022-07-19T14:37:09;3.50;;;3.20;;
2175;SDS011;1094;49.902;10.876;2022-07-19T14:39:36;3.73;;;2.80;;
2175;SDS011;1094;49.902;10.876;2022-07-19T14:42:05;7.23;;;3.17;;
2175;SDS011;1094;49.902;10.876;2022-07-19T14:44:32;6.17;;;3.87;;
2175;SDS011;1094;49.902;10.876;2022-07-19T14:46:58;7.13;;;4.03;;
2175;SDS011;1094;49.902;10.876;2022-07-19T14:49:24;2.93;;;2.67;;
2175;SDS011;1094;49.902;10.876;2022-07-19T14:51:50;3.47;;;3.13;;
2175;SDS011;1094;49.902;10.876;2022-07-19T14:54:16;3.60;;;3.10;;
2175;SDS011;1094;49.902;10.876;2022-07-19T14:56:42;7.77;;;3.20;;
2175;SDS011;1094;49.902;10.876;2022-07-19T14:59:08;8.40;;;3.80;;
2175;SDS011;1094;49.902;10.876;2022-07-19T15:01:34;5.47;;;3.20;;
2175;SDS011;1094;49.902;10.876;2022-07-19T15:04:00;3.73;;;3.10;;
2175;SDS011;1094;49.902;10.876;2022-07-19T15:06:26;3.97;;;3.20;;
2175;SDS011;1094;49.902;10.876;2022-07-19T15:08:52;5.27;;;3.37;;
2175;SDS011;1094;49.902;10.876;2022-07-19T15:11:18;3.63;;;3.07;;
2175;SDS011;1094;49.902;10.876;2022-07-19T15:13:43;4.20;;;3.10;;
2175;SDS011;1094;49.902;10.876;2022-07-19T15:16:09;6.77;;;3.00;;
2175;SDS011;1094;49.902;10.876;2022-07-19T15:18:35;2.87;;;2.67;;
2175;SDS011;1094;49.902;10.876;2022-07-19T15:21:01;4.20;;;3.60;;
2175;SDS011;1094;49.902;10.876;2022-07-19T15:23:27;6.50;;;3.10;;
2175;SDS011;1094;49.902;10.876;2022-07-19T15:25:53;3.53;;;3.23;;
2175;SDS011;1094;49.902;10.876;2022-07-19T15:28:19;3.90;;;2.90;;
2175;SDS011;1094;49.902;10.876;2022-07-19T15:30:45;8.33;;;3.27;;
2175;SDS011;1094;49.902;10.876;2022-07-19T15:33:11;9.10;;;3.93;;